createdAt,value
2022-11-01T00:00:29.774Z,84.80
2022-11-01T00:01:29.852Z,84.80
2022-11-01T00:02:29.802Z,84.70
2022-11-01T00:03:29.766Z,84.70
2022-11-01T00:04:30.013Z,84.50
2022-11-01T00:05:29.723Z,84.60
2022-11-01T00:06:29.730Z,84.60
2022-11-01T00:07:29.752Z,84.50
2022-11-01T00:08:29.665Z,84.50
2022-11-01T00:09:29.704Z,84.36
2022-11-01T00:10:29.646Z,84.36
2022-11-01T00:11:29.941Z,84.36
2022-11-01T00:12:29.647Z,84.40
2022-11-01T00:13:29.635Z,84.26
2022-11-01T00:14:29.614Z,84.26
2022-11-01T00:15:29.661Z,84.16
2022-11-01T00:16:29.592Z,84.05
2022-11-01T00:17:29.620Z,84.16
2022-11-01T00:18:29.868Z,84.05
2022-11-01T00:19:29.558Z,84.16
2022-11-01T00:20:29.540Z,83.75
2022-11-01T00:21:29.602Z,83.65
2022-11-01T00:22:29.529Z,83.45
2022-11-01T00:23:29.509Z,83.45
2022-11-01T00:24:29.512Z,83.45
2022-11-01T00:25:29.791Z,83.34
2022-11-01T00:26:29.491Z,83.24
2022-11-01T00:27:29.522Z,83.14
2022-11-01T00:28:29.469Z,83.24
2022-11-01T00:29:29.462Z,83.34
2022-11-01T00:30:29.454Z,83.34
2022-11-01T00:31:29.422Z,83.45
2022-11-01T00:32:29.698Z,83.34
2022-11-01T00:33:29.473Z,83.45
2022-11-01T00:34:29.401Z,83.24
2022-11-01T00:35:29.452Z,83.34
2022-11-01T00:36:29.375Z,83.14
2022-11-01T00:37:29.367Z,83.24
2022-11-01T00:38:29.362Z,83.34
2022-11-01T00:39:31.350Z,83.14
2022-11-01T00:40:29.344Z,83.34
2022-11-01T00:41:29.335Z,83.34
2022-11-01T00:42:29.359Z,83.34
2022-11-01T00:43:29.287Z,83.45
2022-11-01T00:44:29.287Z,83.45
2022-11-01T00:45:29.338Z,83.34
2022-11-01T00:46:29.543Z,83.45
2022-11-01T00:47:29.259Z,83.45
2022-11-01T00:48:29.258Z,83.54
2022-11-01T00:49:29.244Z,83.65
2022-11-01T00:50:29.260Z,83.65
2022-11-01T00:51:29.340Z,83.65
2022-11-01T00:52:29.325Z,83.65
2022-11-01T00:53:29.533Z,83.54
2022-11-01T00:54:29.175Z,83.45
2022-11-01T00:55:29.203Z,83.34
2022-11-01T00:56:29.165Z,83.24
2022-11-01T00:57:29.199Z,83.24
2022-11-01T00:58:29.127Z,83.14
2022-11-01T00:59:29.146Z,83.14
2022-11-01T01:00:29.500Z,82.94
2022-11-01T01:01:29.283Z,82.94
2022-11-01T01:02:29.210Z,82.84
2022-11-01T01:03:29.143Z,82.84
2022-11-01T01:04:29.083Z,82.64
2022-11-01T01:05:29.069Z,82.50
2022-11-01T01:06:29.052Z,82.50
2022-11-01T01:07:29.436Z,82.50
2022-11-01T01:08:29.028Z,82.50
2022-11-01T01:09:29.074Z,82.59
2022-11-01T01:10:29.017Z,82.50
2022-11-01T01:11:29.009Z,82.50
2022-11-01T01:12:28.991Z,82.29
2022-11-01T01:13:28.984Z,82.39
2022-11-01T01:14:32.321Z,82.29
2022-11-01T01:15:29.023Z,82.29
2022-11-01T01:16:29.053Z,82.29
2022-11-01T01:17:32.809Z,82.29
2022-11-01T01:18:28.924Z,82.29
2022-11-01T01:19:28.931Z,82.19
2022-11-01T01:20:28.922Z,82.29
2022-11-01T01:21:29.198Z,82.09
2022-11-01T01:22:28.890Z,82.19
2022-11-01T01:23:28.867Z,82.19
2022-11-01T01:24:28.855Z,82.09
2022-11-01T01:25:28.864Z,82.09
2022-11-01T01:26:28.835Z,82.09
2022-11-01T01:27:28.886Z,82.09
2022-11-01T01:28:28.827Z,82.09
2022-11-01T01:29:28.814Z,82.19
2022-11-01T01:30:28.788Z,81.88
2022-11-01T01:31:28.794Z,81.99
2022-11-01T01:32:28.797Z,81.88
2022-11-01T01:33:29.135Z,81.99
2022-11-01T01:34:28.746Z,82.19
2022-11-01T01:35:28.741Z,82.09
2022-11-01T01:36:28.810Z,82.19
2022-11-01T01:37:28.744Z,82.09
2022-11-01T01:38:28.710Z,81.88
2022-11-01T01:39:28.741Z,81.68
2022-11-01T01:40:28.717Z,81.58
2022-11-01T01:41:28.696Z,81.24
2022-11-01T01:42:28.667Z,81.24
2022-11-01T01:43:28.657Z,81.13
2022-11-01T01:44:28.674Z,81.04
2022-11-01T01:45:29.276Z,80.93
2022-11-01T01:46:28.623Z,80.83
2022-11-01T01:47:28.611Z,81.04
2022-11-01T01:48:28.601Z,81.04
2022-11-01T01:49:28.604Z,80.93
2022-11-01T01:50:28.570Z,80.83
2022-11-01T01:51:28.627Z,80.93
2022-11-01T01:52:28.865Z,80.73
2022-11-01T01:53:28.560Z,80.73
2022-11-01T01:54:28.530Z,80.73
2022-11-01T01:55:28.530Z,80.63
2022-11-01T01:56:28.519Z,80.59
2022-11-01T01:57:28.533Z,80.39
2022-11-01T01:58:28.527Z,80.39
2022-11-01T01:59:28.869Z,80.29
2022-11-01T02:00:28.494Z,80.19
2022-11-01T02:01:28.628Z,80.29
2022-11-01T02:02:28.463Z,80.29
2022-11-01T02:03:28.479Z,80.29
2022-11-01T02:04:28.428Z,80.19
2022-11-01T02:05:28.430Z,79.98
2022-11-01T02:06:28.738Z,79.88
2022-11-01T02:07:28.401Z,79.64
2022-11-01T02:08:28.414Z,79.44
2022-11-01T02:09:30.944Z,79.24
2022-11-01T02:10:28.377Z,79.03
2022-11-01T02:11:28.364Z,78.79
2022-11-01T02:12:28.341Z,78.79
2022-11-01T02:13:28.624Z,78.69
2022-11-01T02:14:28.317Z,78.59
2022-11-01T02:15:28.384Z,78.59
2022-11-01T02:16:28.304Z,78.49
2022-11-01T02:17:28.296Z,78.39
2022-11-01T02:18:28.271Z,78.28
2022-11-01T02:19:28.289Z,78.28
2022-11-01T02:20:28.543Z,78.28
2022-11-01T02:21:28.285Z,78.08
2022-11-01T02:22:28.233Z,77.95
2022-11-01T02:23:28.227Z,77.95
2022-11-01T02:24:28.233Z,77.95
2022-11-01T02:25:28.231Z,77.95
2022-11-01T02:26:28.193Z,77.84
2022-11-01T02:27:28.537Z,77.95
2022-11-01T02:28:28.179Z,77.95
2022-11-01T02:29:28.160Z,77.95
2022-11-01T02:30:28.154Z,77.95
2022-11-01T02:31:28.156Z,78.05
2022-11-01T02:32:28.142Z,78.15
2022-11-01T02:33:28.156Z,78.25
2022-11-01T02:34:28.390Z,78.39
2022-11-01T02:35:28.107Z,78.49
2022-11-01T02:36:28.115Z,78.69
2022-11-01T02:37:28.069Z,78.79
2022-11-01T02:38:28.076Z,78.89
2022-11-01T02:39:28.092Z,79.00
2022-11-01T02:40:28.066Z,79.00
2022-11-01T02:41:28.342Z,79.10
2022-11-01T02:42:28.032Z,79.20
2022-11-01T02:43:28.014Z,79.06
2022-11-01T02:44:28.086Z,79.06
2022-11-01T02:45:28.021Z,79.26
2022-11-01T02:46:27.993Z,79.26
2022-11-01T02:47:28.024Z,79.26
2022-11-01T02:48:28.249Z,79.16
2022-11-01T02:49:27.949Z,79.16
2022-11-01T02:50:27.950Z,79.06
2022-11-01T02:51:27.988Z,79.16
2022-11-01T02:52:27.931Z,79.16
2022-11-01T02:53:27.912Z,79.06
2022-11-01T02:54:27.927Z,79.16
2022-11-01T02:55:28.277Z,79.06
2022-11-01T02:56:27.874Z,79.16
2022-11-01T02:57:27.919Z,79.16
2022-11-01T02:58:27.854Z,79.26
2022-11-01T02:59:27.841Z,79.36
2022-11-01T03:00:27.843Z,79.36
2022-11-01T03:01:27.946Z,79.46
2022-11-01T03:02:28.109Z,79.57
2022-11-01T03:03:27.847Z,79.53
2022-11-01T03:04:27.794Z,79.43
2022-11-01T03:05:27.786Z,79.43
2022-11-01T03:06:27.778Z,79.53
2022-11-01T03:07:27.760Z,79.43
2022-11-01T03:08:27.767Z,79.53
2022-11-01T03:09:28.042Z,79.63
2022-11-01T03:10:27.736Z,79.73
2022-11-01T03:11:27.737Z,79.73
2022-11-01T03:13:27.702Z,79.83
2022-11-01T03:14:27.698Z,79.93
2022-11-01T03:15:27.717Z,80.04
2022-11-01T03:16:27.997Z,79.90
2022-11-01T03:17:27.658Z,79.79
2022-11-01T03:18:27.652Z,79.69
2022-11-01T03:19:27.643Z,79.59
2022-11-01T03:20:27.638Z,79.59
2022-11-01T03:21:27.638Z,79.69
2022-11-01T03:22:27.608Z,79.69
2022-11-01T03:23:27.867Z,79.46
2022-11-01T03:24:27.588Z,79.46
2022-11-01T03:25:27.570Z,79.46
2022-11-01T03:26:27.578Z,79.46
2022-11-01T03:27:27.618Z,79.55
2022-11-01T03:28:27.553Z,79.66
2022-11-01T03:29:27.526Z,79.55
2022-11-01T03:30:27.809Z,79.55
2022-11-01T03:31:27.518Z,79.66
2022-11-01T03:32:27.498Z,79.75
2022-11-01T03:33:27.538Z,79.75
2022-11-01T03:34:27.474Z,79.86
2022-11-01T03:35:27.465Z,79.86
2022-11-01T03:36:27.459Z,79.96
2022-11-01T03:37:27.760Z,79.96
2022-11-01T03:38:27.448Z,80.06
2022-11-01T03:39:27.461Z,80.16
2022-11-01T03:40:27.430Z,80.06
2022-11-01T03:41:27.400Z,80.16
2022-11-01T03:42:27.398Z,80.16
2022-11-01T03:43:27.381Z,80.16
2022-11-01T03:44:27.650Z,80.06
2022-11-01T03:45:27.392Z,80.16
2022-11-01T03:46:27.365Z,80.26
2022-11-01T03:47:27.337Z,80.36
2022-11-01T03:48:27.401Z,80.46
2022-11-01T03:49:27.313Z,80.57
2022-11-01T03:50:27.310Z,80.80
2022-11-01T03:51:27.633Z,80.91
2022-11-01T03:52:27.303Z,80.91
2022-11-01T03:53:27.281Z,80.91
2022-11-01T03:54:27.293Z,80.97
2022-11-01T03:55:27.297Z,81.01
2022-11-01T03:56:27.248Z,81.11
2022-11-01T03:57:27.320Z,80.97
2022-11-01T03:58:27.515Z,80.87
2022-11-01T03:59:27.215Z,80.87
2022-11-01T04:00:27.216Z,80.97
2022-11-01T04:01:27.270Z,80.97
2022-11-01T04:02:27.193Z,80.97
2022-11-01T04:03:27.253Z,80.97
2022-11-01T04:04:27.196Z,80.97
2022-11-01T04:05:27.469Z,81.07
2022-11-01T04:06:27.168Z,81.17
2022-11-01T04:07:27.126Z,81.27
2022-11-01T04:08:27.118Z,81.27
2022-11-01T04:09:27.151Z,81.27
2022-11-01T04:10:27.107Z,81.27
2022-11-01T04:11:27.084Z,81.27
2022-11-01T04:12:27.352Z,81.17
2022-11-01T04:13:27.073Z,81.17
2022-11-01T04:14:27.059Z,81.27
2022-11-01T04:15:27.079Z,81.48
2022-11-01T04:16:27.030Z,81.48
2022-11-01T04:17:27.020Z,81.57
2022-11-01T04:18:27.137Z,81.48
2022-11-01T04:19:27.271Z,81.57
2022-11-01T04:20:26.996Z,81.68
2022-11-01T04:21:27.050Z,81.68
2022-11-01T04:22:26.968Z,81.78
2022-11-01T04:23:27.009Z,81.88
2022-11-01T04:24:26.943Z,81.88
2022-11-01T04:25:26.938Z,81.78
2022-11-01T04:26:27.207Z,81.78
2022-11-01T04:27:26.954Z,81.78
2022-11-01T04:28:26.913Z,81.78
2022-11-01T04:29:26.895Z,81.78
2022-11-01T04:30:26.894Z,81.78
2022-11-01T04:31:26.867Z,81.78
2022-11-01T04:32:26.868Z,81.57
2022-11-01T04:33:27.176Z,81.57
2022-11-01T04:34:26.836Z,81.57
2022-11-01T04:35:26.840Z,81.57
2022-11-01T04:36:26.828Z,81.57
2022-11-01T04:37:26.806Z,81.57
2022-11-01T04:38:26.802Z,81.57
2022-11-01T04:39:26.846Z,81.68
2022-11-01T04:40:27.059Z,81.64
2022-11-01T04:41:26.767Z,81.68
2022-11-01T04:42:26.765Z,81.68
2022-11-01T04:43:26.742Z,81.78
2022-11-01T04:44:26.736Z,81.78
2022-11-01T04:45:26.768Z,81.88
2022-11-01T04:46:26.736Z,81.84
2022-11-01T04:47:27.029Z,81.88
2022-11-01T04:48:26.727Z,81.64
2022-11-01T04:49:26.712Z,81.54
2022-11-01T04:50:26.673Z,81.44
2022-11-01T04:51:26.852Z,81.44
2022-11-01T04:52:26.653Z,81.44
2022-11-01T04:53:26.645Z,81.44
2022-11-01T04:54:26.925Z,81.54
2022-11-01T04:55:26.633Z,81.54
2022-11-01T04:56:26.611Z,81.54
2022-11-01T04:57:26.635Z,81.64
2022-11-01T04:58:26.599Z,81.74
2022-11-01T04:59:26.578Z,81.84
2022-11-01T05:00:26.579Z,81.84
2022-11-01T05:01:27.009Z,81.94
2022-11-01T05:02:26.546Z,81.94
2022-11-01T05:03:26.601Z,82.04
2022-11-01T05:04:26.537Z,81.94
2022-11-01T05:05:26.508Z,81.94
2022-11-01T05:06:26.505Z,81.84
2022-11-01T05:07:26.491Z,81.84
2022-11-01T05:08:26.768Z,81.84
2022-11-01T05:09:26.502Z,81.94
2022-11-01T05:10:26.461Z,82.04
2022-11-01T05:11:26.446Z,82.04
2022-11-01T05:12:26.441Z,81.94
2022-11-01T05:13:26.434Z,81.94
2022-11-01T05:14:26.415Z,81.94
2022-11-01T05:15:26.734Z,81.94
2022-11-01T05:16:26.399Z,82.04
2022-11-01T05:17:26.402Z,82.14
2022-11-01T05:18:26.375Z,82.14
2022-11-01T05:19:26.367Z,82.14
2022-11-01T05:20:26.413Z,82.04
2022-11-01T05:21:26.450Z,82.04
2022-11-01T05:22:26.329Z,82.04
2022-11-01T05:23:26.320Z,82.04
2022-11-01T05:24:26.312Z,82.14
2022-11-01T05:25:26.301Z,82.14
2022-11-01T05:26:26.291Z,82.24
2022-11-01T05:27:26.342Z,82.24
2022-11-01T05:28:26.560Z,82.14
2022-11-01T05:29:33.059Z,82.14
2022-11-01T05:30:26.254Z,82.14
2022-11-01T05:31:26.264Z,82.01
2022-11-01T05:32:26.241Z,81.90
2022-11-01T05:33:26.244Z,82.01
2022-11-01T05:34:26.201Z,82.01
2022-11-01T05:35:26.211Z,82.04
2022-11-01T05:36:26.183Z,81.90
2022-11-01T05:37:28.216Z,81.80
2022-11-01T05:38:26.197Z,81.90
2022-11-01T05:39:26.179Z,81.80
2022-11-01T05:40:26.454Z,81.80
2022-11-01T05:41:26.143Z,81.90
2022-11-01T05:42:26.134Z,82.01
2022-11-01T05:43:26.115Z,82.10
2022-11-01T05:44:26.105Z,82.21
2022-11-01T05:45:26.125Z,82.35
2022-11-01T05:46:26.105Z,82.45
2022-11-01T05:47:26.088Z,82.45
2022-11-01T05:48:26.057Z,82.45
2022-11-01T05:49:26.043Z,82.41
2022-11-01T05:50:26.034Z,82.41
2022-11-01T05:51:26.074Z,82.45
2022-11-01T05:52:26.315Z,82.55
2022-11-01T05:53:26.005Z,82.65
2022-11-01T05:54:25.992Z,82.75
2022-11-01T05:55:25.983Z,82.85
2022-11-01T05:56:25.977Z,82.85
2022-11-01T05:57:30.941Z,82.85
2022-11-01T05:58:29.607Z,82.85
2022-11-01T05:59:25.937Z,82.95
2022-11-01T06:00:25.942Z,82.95
2022-11-01T06:01:26.006Z,83.05
2022-11-01T06:02:25.968Z,83.15
2022-11-01T06:03:25.978Z,83.15
2022-11-01T06:04:25.894Z,83.15
2022-11-01T06:05:26.149Z,83.05
2022-11-01T06:06:25.880Z,83.05
2022-11-01T06:07:25.849Z,83.05
2022-11-01T06:08:25.843Z,82.85
2022-11-01T06:09:25.890Z,82.55
2022-11-01T06:10:25.841Z,82.45
2022-11-01T06:11:25.818Z,82.35
2022-11-01T06:12:26.104Z,82.24
2022-11-01T06:13:25.789Z,82.14
2022-11-01T06:14:25.831Z,82.04
2022-11-01T06:15:25.804Z,82.04
2022-11-01T06:16:25.772Z,82.04
2022-11-01T06:17:25.772Z,82.04
2022-11-01T06:18:25.746Z,82.04
2022-11-01T06:19:26.017Z,81.94
2022-11-01T06:20:25.715Z,81.94
2022-11-01T06:21:29.184Z,81.74
2022-11-01T06:22:25.731Z,81.74
2022-11-01T06:23:25.703Z,81.74
2022-11-01T06:24:25.671Z,81.64
2022-11-01T06:25:25.667Z,81.54
2022-11-01T06:26:25.936Z,81.44
2022-11-01T06:27:25.667Z,81.23
2022-11-01T06:28:25.632Z,81.03
2022-11-01T06:29:25.628Z,81.03
2022-11-01T06:30:25.631Z,80.83
2022-11-01T06:31:25.618Z,80.73
2022-11-01T06:32:25.601Z,80.63
2022-11-01T06:33:25.901Z,80.29
2022-11-01T06:34:25.576Z,79.99
2022-11-01T06:35:25.550Z,79.79
2022-11-01T06:36:25.544Z,79.48
2022-11-01T06:37:25.532Z,79.08
2022-11-01T06:38:25.528Z,79.17
2022-11-01T06:39:25.553Z,79.17
2022-11-01T06:40:26.785Z,79.17
2022-11-01T06:41:25.511Z,79.28
2022-11-01T06:42:25.493Z,79.38
2022-11-01T06:43:25.474Z,79.38
2022-11-01T06:44:25.467Z,79.38
2022-11-01T06:45:25.486Z,79.17
2022-11-01T06:46:25.490Z,79.17
2022-11-01T06:47:25.830Z,79.08
2022-11-01T06:48:25.440Z,79.08
2022-11-01T06:49:25.418Z,78.77
2022-11-01T06:50:25.418Z,78.67
2022-11-01T06:51:25.445Z,78.47
2022-11-01T06:52:25.383Z,77.86
2022-11-01T06:53:25.362Z,77.56
2022-11-01T06:54:25.648Z,77.56
2022-11-01T06:55:25.361Z,77.15
2022-11-01T06:56:25.354Z,76.65
2022-11-01T06:57:25.374Z,76.45
2022-11-01T06:58:25.304Z,76.45
2022-11-01T06:59:25.310Z,76.25
2022-11-01T07:00:25.315Z,76.35
2022-11-01T07:01:25.757Z,76.35
2022-11-01T07:02:29.492Z,76.18
2022-11-01T07:03:25.324Z,76.18
2022-11-01T07:04:25.297Z,76.18
2022-11-01T07:05:25.255Z,76.28
2022-11-01T07:06:25.235Z,76.18
2022-11-01T07:07:25.239Z,76.18
2022-11-01T07:08:25.493Z,76.28
2022-11-01T07:09:25.395Z,76.18
2022-11-01T07:10:25.230Z,76.39
2022-11-01T07:11:30.143Z,76.18
2022-11-01T07:12:25.181Z,76.08
2022-11-01T07:13:25.172Z,76.18
2022-11-01T07:14:25.169Z,76.18
2022-11-01T07:15:25.488Z,76.28
2022-11-01T07:16:25.126Z,76.39
2022-11-01T07:17:25.128Z,76.48
2022-11-01T07:18:25.104Z,76.28
2022-11-01T07:19:25.113Z,76.28
2022-11-01T07:20:25.094Z,76.39
2022-11-01T07:21:25.133Z,76.28
2022-11-01T07:22:25.096Z,76.48
2022-11-01T07:23:25.092Z,76.39
2022-11-01T07:24:25.166Z,76.59
2022-11-01T07:25:25.031Z,76.82
2022-11-01T07:26:25.025Z,76.82
2022-11-01T07:27:25.068Z,76.93
2022-11-01T07:28:25.296Z,77.03
2022-11-01T07:29:24.982Z,77.13
2022-11-01T07:30:24.981Z,76.62
2022-11-01T07:31:24.998Z,76.93
2022-11-01T07:32:24.969Z,76.52
2022-11-01T07:33:24.997Z,76.32
2022-11-01T07:34:24.929Z,76.02
2022-11-01T07:35:24.980Z,74.80
2022-11-01T07:36:24.934Z,72.68
2022-11-01T07:37:24.985Z,72.88
2022-11-01T07:38:24.947Z,72.58
2022-11-01T07:39:24.961Z,71.26
2022-11-01T07:40:25.172Z,72.68
2022-11-01T07:41:24.924Z,72.99
2022-11-01T07:42:24.878Z,72.92
2022-11-01T07:43:24.868Z,72.81
2022-11-01T07:44:24.867Z,72.31
2022-11-01T07:45:24.876Z,72.31
2022-11-01T07:46:24.852Z,70.49
2022-11-01T07:47:24.802Z,69.92
2022-11-01T07:48:24.844Z,67.79
2022-11-01T07:49:24.802Z,68.30
2022-11-01T07:50:24.770Z,67.29
2022-11-01T07:51:24.813Z,66.81
2022-11-01T07:52:25.059Z,66.71
2022-11-01T07:53:24.791Z,66.91
2022-11-01T07:54:24.720Z,66.50
2022-11-01T07:55:24.801Z,65.93
2022-11-01T07:56:24.719Z,65.62
2022-11-01T07:57:24.793Z,64.82
2022-11-01T07:58:24.700Z,64.51
2022-11-01T07:59:24.954Z,64.92
2022-11-01T08:00:24.977Z,63.09
2022-11-01T08:01:24.864Z,63.50
2022-11-01T08:02:24.845Z,63.70
2022-11-01T08:03:24.728Z,63.09
2022-11-01T08:04:24.661Z,63.09
2022-11-01T08:05:24.663Z,63.30
2022-11-01T08:06:24.932Z,62.79
2022-11-01T08:07:24.616Z,63.30
2022-11-01T08:08:24.602Z,63.09
2022-11-01T08:09:24.682Z,62.99
2022-11-01T08:10:24.703Z,62.49
2022-11-01T08:11:24.616Z,62.35
2022-11-01T08:12:24.542Z,62.05
2022-11-01T08:13:24.804Z,61.41
2022-11-01T08:14:24.561Z,60.98
2022-11-01T08:15:24.617Z,61.05
2022-11-01T08:16:24.526Z,60.52
2022-11-01T08:17:24.519Z,59.91
2022-11-01T08:18:24.592Z,59.38
2022-11-01T08:19:24.548Z,59.18
2022-11-01T08:20:24.957Z,59.18
2022-11-01T08:21:24.501Z,59.18
2022-11-01T08:22:24.479Z,58.85
2022-11-01T08:23:24.411Z,58.65
2022-11-01T08:24:24.452Z,58.62
2022-11-01T08:25:24.406Z,58.72
2022-11-01T08:26:24.409Z,58.52
2022-11-01T08:27:24.467Z,58.72
2022-11-01T08:28:24.444Z,58.09
2022-11-01T08:29:24.427Z,58.19
2022-11-01T08:30:24.435Z,57.89
2022-11-01T08:31:24.354Z,57.89
2022-11-01T08:32:24.322Z,57.68
2022-11-01T08:33:24.691Z,57.45
2022-11-01T08:34:24.350Z,57.56
2022-11-01T08:35:24.306Z,56.75
2022-11-01T08:36:24.390Z,56.77
2022-11-01T08:37:24.366Z,56.85
2022-11-01T08:38:24.395Z,56.65
2022-11-01T08:39:24.386Z,56.48
2022-11-01T08:40:24.348Z,56.68
2022-11-01T08:41:24.278Z,56.98
2022-11-01T08:42:24.264Z,56.40
2022-11-01T08:43:24.255Z,56.90
2022-11-01T08:44:24.265Z,56.70
2022-11-01T08:45:24.333Z,56.07
2022-11-01T08:46:24.475Z,56.17
2022-11-01T08:47:24.341Z,56.27
2022-11-01T08:48:24.225Z,55.84
2022-11-01T08:49:24.214Z,55.24
2022-11-01T08:50:24.285Z,54.56
2022-11-01T08:51:24.323Z,55.06
2022-11-01T08:52:24.289Z,55.46
2022-11-01T08:53:24.441Z,55.66
2022-11-01T08:54:24.141Z,55.44
2022-11-01T08:55:24.237Z,55.24
2022-11-01T08:56:24.109Z,55.64
2022-11-01T08:57:24.134Z,55.34
2022-11-01T08:58:24.113Z,55.44
2022-11-01T08:59:24.069Z,55.21
2022-11-01T09:00:24.381Z,55.01
2022-11-01T09:01:24.193Z,55.34
2022-11-01T09:02:24.227Z,55.87
2022-11-01T09:03:24.154Z,56.24
2022-11-01T09:04:24.054Z,55.91
2022-11-01T09:05:24.070Z,55.71
2022-11-01T09:06:24.098Z,55.51
2022-11-01T09:07:24.024Z,55.51
2022-11-01T09:08:24.023Z,55.21
2022-11-01T09:09:23.987Z,55.44
2022-11-01T09:10:23.939Z,55.44
2022-11-01T09:11:23.935Z,55.64
2022-11-01T09:12:24.891Z,55.04
2022-11-01T09:13:23.939Z,55.36
2022-11-01T09:14:23.944Z,55.26
2022-11-01T09:15:24.036Z,55.87
2022-11-01T09:16:23.974Z,55.74
2022-11-01T09:17:24.003Z,55.44
2022-11-01T09:18:23.974Z,55.31
2022-11-01T09:19:24.051Z,54.71
2022-11-01T09:20:23.951Z,54.94
2022-11-01T09:21:27.785Z,54.91
2022-11-01T09:22:23.880Z,54.73
2022-11-01T09:23:23.894Z,55.04
2022-11-01T09:24:23.856Z,54.63
2022-11-01T09:25:23.783Z,54.43
2022-11-01T09:26:23.872Z,54.13
2022-11-01T09:27:23.810Z,54.43
2022-11-01T09:28:23.788Z,54.33
2022-11-01T09:29:23.877Z,54.53
2022-11-01T09:30:23.731Z,54.43
2022-11-01T09:31:24.046Z,54.41
2022-11-01T09:32:23.772Z,53.92
2022-11-01T09:33:23.835Z,54.03
2022-11-01T09:34:23.800Z,54.13
2022-11-01T09:35:23.761Z,53.83
2022-11-01T09:36:23.690Z,54.00
2022-11-01T09:37:23.790Z,54.10
2022-11-01T09:38:23.960Z,54.21
2022-11-01T09:39:23.686Z,53.60
2022-11-01T09:40:23.770Z,53.67
2022-11-01T09:41:23.655Z,53.58
2022-11-01T09:42:23.651Z,53.58
2022-11-01T09:43:23.605Z,53.78
2022-11-01T09:44:23.594Z,53.78
2022-11-01T09:45:23.739Z,53.98
2022-11-01T09:46:23.598Z,53.88
2022-11-01T09:47:23.621Z,54.30
2022-11-01T09:48:23.529Z,54.21
2022-11-01T09:49:23.593Z,54.28
2022-11-01T09:50:23.503Z,53.58
2022-11-01T09:51:23.883Z,53.30
2022-11-01T09:52:23.497Z,53.60
2022-11-01T09:53:23.567Z,53.90
2022-11-01T09:54:23.582Z,53.70
2022-11-01T09:55:23.551Z,53.88
2022-11-01T09:56:23.445Z,53.70
2022-11-01T09:57:23.517Z,54.10
2022-11-01T09:58:23.761Z,53.90
2022-11-01T09:59:23.460Z,53.70
2022-11-01T10:00:23.520Z,54.10
2022-11-01T10:01:23.595Z,53.67
2022-11-01T10:02:23.538Z,53.25
2022-11-01T10:03:23.415Z,53.25
2022-11-01T10:04:23.373Z,53.22
2022-11-01T10:05:23.443Z,52.74
2022-11-01T10:06:23.400Z,52.94
2022-11-01T10:07:23.400Z,52.92
2022-11-01T10:08:23.372Z,52.54
2022-11-01T10:09:23.412Z,53.02
2022-11-01T10:10:23.366Z,52.80
2022-11-01T10:11:23.628Z,52.69
2022-11-01T10:12:23.315Z,52.89
2022-11-01T10:13:23.339Z,52.29
2022-11-01T10:14:23.333Z,52.49
2022-11-01T10:15:23.332Z,52.22
2022-11-01T10:16:23.287Z,52.74
2022-11-01T10:17:23.359Z,53.67
2022-11-01T10:18:23.636Z,53.58
2022-11-01T10:19:23.218Z,53.78
2022-11-01T10:20:23.270Z,53.65
2022-11-01T10:21:25.868Z,53.02
2022-11-01T10:22:23.272Z,52.82
2022-11-01T10:23:23.228Z,52.62
2022-11-01T10:24:23.157Z,52.09
2022-11-01T10:25:23.455Z,51.68
2022-11-01T10:26:23.156Z,51.49
2022-11-01T10:27:23.223Z,51.86
2022-11-01T10:28:23.255Z,51.36
2022-11-01T10:29:23.160Z,51.68
2022-11-01T10:30:23.162Z,51.91
2022-11-01T10:31:23.087Z,52.11
2022-11-01T10:32:23.395Z,51.89
2022-11-01T10:33:23.246Z,51.39
2022-11-01T10:34:23.111Z,51.09
2022-11-01T10:35:23.097Z,51.68
2022-11-01T10:36:23.156Z,51.71
2022-11-01T10:37:23.074Z,51.89
2022-11-01T10:38:32.321Z,51.61
2022-11-01T10:39:53.576Z,51.99
2022-11-01T10:40:23.087Z,51.79
2022-11-01T10:41:23.004Z,51.16
2022-11-01T10:42:23.022Z,51.59
2022-11-01T10:43:22.941Z,51.39
2022-11-01T10:44:22.995Z,51.79
2022-11-01T10:45:23.344Z,51.76
2022-11-01T10:46:22.917Z,51.36
2022-11-01T10:47:23.014Z,51.39
2022-11-01T10:48:22.934Z,51.79
2022-11-01T10:49:24.624Z,51.99
2022-11-01T10:50:22.885Z,51.66
2022-11-01T10:51:27.645Z,51.39
2022-11-01T10:52:22.918Z,51.26
2022-11-01T10:53:22.895Z,50.86
2022-11-01T10:54:22.880Z,50.98
2022-11-01T10:55:22.863Z,51.18
2022-11-01T10:56:24.112Z,51.81
2022-11-01T10:57:23.177Z,52.01
2022-11-01T10:58:22.820Z,52.44
2022-11-01T10:59:22.811Z,51.91
2022-11-01T11:00:22.888Z,51.93
2022-11-01T11:01:22.946Z,52.37
2022-11-01T11:02:23.088Z,52.14
2022-11-01T11:03:22.812Z,52.11
2022-11-01T11:04:22.825Z,51.31
2022-11-01T11:05:22.800Z,51.21
2022-11-01T11:06:22.729Z,51.01
2022-11-01T11:07:24.217Z,51.21
2022-11-01T11:08:22.658Z,51.51
2022-11-01T11:09:22.798Z,51.49
2022-11-01T11:10:24.145Z,50.56
2022-11-01T11:11:22.799Z,50.23
2022-11-01T11:12:22.694Z,49.85
2022-11-01T11:13:22.611Z,49.65
2022-11-01T11:14:22.666Z,50.26
2022-11-01T11:15:23.932Z,50.46
2022-11-01T11:16:22.620Z,49.83
2022-11-01T11:17:22.611Z,49.51
2022-11-01T11:18:22.691Z,49.10
2022-11-01T11:19:22.631Z,49.18
2022-11-01T11:20:22.678Z,49.38
2022-11-01T11:21:27.837Z,48.96
2022-11-01T11:22:22.558Z,48.35
2022-11-01T11:23:22.520Z,48.58
2022-11-01T11:24:22.566Z,48.78
2022-11-01T11:25:22.522Z,48.35
2022-11-01T11:26:22.800Z,48.05
2022-11-01T11:27:22.596Z,48.58
2022-11-01T11:28:22.457Z,48.48
2022-11-01T11:29:22.517Z,48.48
2022-11-01T11:30:22.498Z,48.58
2022-11-01T11:31:22.494Z,48.48
2022-11-01T11:32:22.561Z,48.66
2022-11-01T11:33:22.598Z,48.25
2022-11-01T11:34:22.747Z,48.23
2022-11-01T11:35:22.415Z,47.81
2022-11-01T11:36:22.488Z,47.50
2022-11-01T11:37:22.504Z,47.53
2022-11-01T11:38:22.402Z,47.83
2022-11-01T11:39:22.518Z,48.11
2022-11-01T11:40:22.379Z,47.71
2022-11-01T11:41:22.414Z,47.41
2022-11-01T11:42:22.368Z,46.68
2022-11-01T11:43:22.416Z,46.61
2022-11-01T11:44:22.426Z,47.31
2022-11-01T11:45:22.481Z,47.71
2022-11-01T11:46:22.346Z,47.53
2022-11-01T11:47:22.343Z,47.13
2022-11-01T11:48:22.263Z,47.85
2022-11-01T11:49:22.366Z,48.08
2022-11-01T11:50:22.283Z,49.21
2022-11-01T11:51:22.391Z,49.01
2022-11-01T11:52:28.208Z,49.08
2022-11-01T11:53:22.289Z,49.21
2022-11-01T11:54:22.230Z,49.51
2022-11-01T11:55:22.178Z,49.63
2022-11-01T11:56:22.288Z,49.51
2022-11-01T11:57:22.287Z,49.28
2022-11-01T11:58:22.179Z,48.96
2022-11-01T11:59:22.116Z,48.46
2022-11-01T12:00:22.165Z,48.78
2022-11-01T12:01:22.197Z,49.10
2022-11-01T12:02:22.156Z,49.51
2022-11-01T12:03:22.282Z,49.51
2022-11-01T12:04:22.105Z,49.58
2022-11-01T12:05:22.321Z,49.16
2022-11-01T12:06:22.037Z,48.73
2022-11-01T12:07:22.862Z,47.93
2022-11-01T12:08:22.074Z,48.66
2022-11-01T12:09:22.960Z,48.46
2022-11-01T12:10:22.044Z,49.38
2022-11-01T12:11:22.124Z,50.66
2022-11-01T12:12:22.331Z,50.41
2022-11-01T12:13:22.021Z,49.88
2022-11-01T12:14:21.986Z,49.18
2022-11-01T12:15:22.067Z,49.51
2022-11-01T12:16:22.046Z,50.13
2022-11-01T12:17:21.896Z,49.58
2022-11-01T12:18:21.936Z,49.08
2022-11-01T12:19:22.244Z,50.21
2022-11-01T12:20:21.969Z,49.98
2022-11-01T12:21:21.990Z,49.05
2022-11-01T12:22:21.931Z,49.91
2022-11-01T12:23:21.972Z,49.60
2022-11-01T12:24:22.035Z,50.66
2022-11-01T12:25:21.858Z,51.26
2022-11-01T12:26:22.192Z,51.04
2022-11-01T12:27:22.032Z,50.41
2022-11-01T12:28:21.862Z,50.84
2022-11-01T12:29:21.848Z,51.34
2022-11-01T12:30:21.834Z,51.24
2022-11-01T12:31:21.825Z,51.04
2022-11-01T12:32:21.826Z,51.76
2022-11-01T12:33:22.108Z,51.24
2022-11-01T12:34:21.857Z,51.01
2022-11-01T12:35:21.835Z,50.84
2022-11-01T12:36:21.803Z,50.81
2022-11-01T12:37:21.720Z,50.81
2022-11-01T12:38:21.795Z,50.29
2022-11-01T12:39:21.859Z,50.18
2022-11-01T12:40:21.752Z,50.16
2022-11-01T12:41:21.738Z,49.86
2022-11-01T12:42:21.716Z,49.56
2022-11-01T12:43:21.680Z,49.63
2022-11-01T12:44:21.786Z,48.91
2022-11-01T12:45:21.821Z,48.71
2022-11-01T12:46:21.943Z,48.71
2022-11-01T12:47:21.699Z,48.91
2022-11-01T12:48:21.671Z,48.91
2022-11-01T12:49:21.613Z,48.73
2022-11-01T12:50:21.680Z,49.56
2022-11-01T12:51:21.669Z,49.76
2022-11-01T12:52:21.664Z,49.54
2022-11-01T12:53:21.603Z,50.41